sensor_id;sensor_type;location;lat;lon;timestamp;pressure;altitude;pressure_sealevel;temperature;humidity
69879;BME280;57161;43.136;24.706;2022-12-11T00:00:46;97119.91;;;12.61;82.74
69879;BME280;57161;43.136;24.706;2022-12-11T00:03:14;97120.75;;;12.63;82.64
69879;BME280;57161;43.136;24.706;2022-12-11T00:05:40;97107.38;;;12.62;83.13
69879;BME280;57161;43.136;24.706;2022-12-11T00:08:06;97113.94;;;12.67;82.96
69879;BME280;57161;43.136;24.706;2022-12-11T00:10:32;97116.03;;;12.54;83.02
69879;BME280;57161;43.136;24.706;2022-12-11T00:12:57;97123.22;;;12.57;82.96
69879;BME280;57161;43.136;24.706;2022-12-11T00:15:23;97132.81;;;12.66;83.02
69879;BME280;57161;43.136;24.706;2022-12-11T00:17:48;97115.53;;;12.58;82.94
69879;BME280;57161;43.136;24.706;2022-12-11T00:20:14;97120.75;;;12.63;83.08
69879;BME280;57161;43.136;24.706;2022-12-11T00:22:40;97112.59;;;12.68;82.83
69879;BME280;57161;43.136;24.706;2022-12-11T00:25:06;97093.97;;;12.72;82.70
69879;BME280;57161;43.136;24.706;2022-12-11T00:27:32;97072.19;;;12.71;82.68
69879;BME280;57161;43.136;24.706;2022-12-11T00:29:57;97074.97;;;12.71;82.59
69879;BME280;57161;43.136;24.706;2022-12-11T00:32:23;97046.47;;;12.74;82.12
69879;BME280;57161;43.136;24.706;2022-12-11T00:34:48;97055.84;;;12.79;81.52
69879;BME280;57161;43.136;24.706;2022-12-11T00:37:14;97029.25;;;13.03;79.58
69879;BME280;57161;43.136;24.706;2022-12-11T00:39:39;97030.09;;;13.43;78.04
69879;BME280;57161;43.136;24.706;2022-12-11T00:42:08;97027.53;;;13.72;75.90
69879;BME280;57161;43.136;24.706;2022-12-11T00:44:34;97023.22;;;13.97;75.14
69879;BME280;57161;43.136;24.706;2022-12-11T00:47:00;97025.13;;;14.06;74.85
69879;BME280;57161;43.136;24.706;2022-12-11T00:49:25;97032.75;;;14.17;74.38
69879;BME280;57161;43.136;24.706;2022-12-11T00:51:51;97024.75;;;14.39;73.03
69879;BME280;57161;43.136;24.706;2022-12-11T00:54:16;97003.44;;;14.34;72.64
69879;BME280;57161;43.136;24.706;2022-12-11T00:56:42;97021.38;;;14.54;72.17
69879;BME280;57161;43.136;24.706;2022-12-11T00:59:07;96993.25;;;14.68;71.58
69879;BME280;57161;43.136;24.706;2022-12-11T01:01:33;97026.03;;;14.77;71.82
69879;BME280;57161;43.136;24.706;2022-12-11T01:03:59;97003.44;;;14.75;72.02
69879;BME280;57161;43.136;24.706;2022-12-11T01:06:26;97034.78;;;14.83;72.10
69879;BME280;57161;43.136;24.706;2022-12-11T01:08:52;97032.19;;;14.87;72.35
69879;BME280;57161;43.136;24.706;2022-12-11T01:11:39;97007.16;;;14.93;73.01
69879;BME280;57161;43.136;24.706;2022-12-11T01:14:05;97009.88;;;14.91;73.28
69879;BME280;57161;43.136;24.706;2022-12-11T01:16:31;96985.66;;;14.84;72.95
69879;BME280;57161;43.136;24.706;2022-12-11T01:18:57;97018.75;;;14.99;72.62
69879;BME280;57161;43.136;24.706;2022-12-11T01:21:22;96992.47;;;14.95;72.61
69879;BME280;57161;43.136;24.706;2022-12-11T01:23:51;96986.97;;;14.97;72.12
69879;BME280;57161;43.136;24.706;2022-12-11T01:26:16;96986.44;;;15.00;72.21
69879;BME280;57161;43.136;24.706;2022-12-11T01:28:42;96963.31;;;15.02;72.36
69879;BME280;57161;43.136;24.706;2022-12-11T01:31:13;96926.34;;;15.08;71.93
69879;BME280;57161;43.136;24.706;2022-12-11T01:33:40;96953.28;;;15.13;71.63
69879;BME280;57161;43.136;24.706;2022-12-11T01:36:14;96981.72;;;15.19;71.47
69879;BME280;57161;43.136;24.706;2022-12-11T01:38:40;96976.56;;;15.29;71.02
69879;BME280;57161;43.136;24.706;2022-12-11T01:41:06;96960.03;;;15.21;71.05
69879;BME280;57161;43.136;24.706;2022-12-11T01:43:32;96988.56;;;15.29;71.22
69879;BME280;57161;43.136;24.706;2022-12-11T01:45:57;96967.41;;;15.28;71.18
69879;BME280;57161;43.136;24.706;2022-12-11T01:48:26;96985.84;;;15.31;71.24
69879;BME280;57161;43.136;24.706;2022-12-11T01:50:56;96976.09;;;15.19;71.70
69879;BME280;57161;43.136;24.706;2022-12-11T01:53:50;96974.44;;;15.14;71.53
69879;BME280;57161;43.136;24.706;2022-12-11T01:56:18;96956.53;;;15.07;71.41
69879;BME280;57161;43.136;24.706;2022-12-11T01:58:51;96939.03;;;15.09;71.58
69879;BME280;57161;43.136;24.706;2022-12-11T02:01:28;96936.84;;;15.07;71.42
69879;BME280;57161;43.136;24.706;2022-12-11T02:03:57;96949.47;;;15.06;69.93
69879;BME280;57161;43.136;24.706;2022-12-11T02:09:00;96943.38;;;15.41;67.69
69879;BME280;57161;43.136;24.706;2022-12-11T02:11:42;96917.72;;;15.49;67.37
69879;BME280;57161;43.136;24.706;2022-12-11T02:14:19;96924.66;;;15.77;65.88
69879;BME280;57161;43.136;24.706;2022-12-11T02:17:12;96917.22;;;16.00;64.95
69879;BME280;57161;43.136;24.706;2022-12-11T02:22:39;96914.53;;;16.51;62.88
69879;BME280;57161;43.136;24.706;2022-12-11T02:25:27;96912.13;;;16.61;62.50
69879;BME280;57161;43.136;24.706;2022-12-11T02:31:02;96908.00;;;16.80;62.14
69879;BME280;57161;43.136;24.706;2022-12-11T02:33:57;96926.09;;;16.75;62.60
69879;BME280;57161;43.136;24.706;2022-12-11T02:36:25;96916.38;;;16.78;62.08
69879;BME280;57161;43.136;24.706;2022-12-11T02:38:53;96912.34;;;16.83;61.85
69879;BME280;57161;43.136;24.706;2022-12-11T02:41:22;96913.31;;;16.90;62.54
69879;BME280;57161;43.136;24.706;2022-12-11T02:43:49;96922.56;;;16.74;63.36
69879;BME280;57161;43.136;24.706;2022-12-11T02:46:18;96919.22;;;16.62;63.90
69879;BME280;57161;43.136;24.706;2022-12-11T02:48:45;96930.31;;;16.58;64.12
69879;BME280;57161;43.136;24.706;2022-12-11T02:51:14;96923.78;;;16.54;62.82
69879;BME280;57161;43.136;24.706;2022-12-11T02:53:42;96890.75;;;16.72;61.90
69879;BME280;57161;43.136;24.706;2022-12-11T02:56:37;96896.09;;;16.99;61.33
69879;BME280;57161;43.136;24.706;2022-12-11T02:59:06;96912.84;;;17.13;61.22
69879;BME280;57161;43.136;24.706;2022-12-11T03:01:33;96910.69;;;17.12;61.02
69879;BME280;57161;43.136;24.706;2022-12-11T03:03:58;96919.28;;;17.33;60.02
69879;BME280;57161;43.136;24.706;2022-12-11T03:06:27;96929.84;;;17.33;60.04
69879;BME280;57161;43.136;24.706;2022-12-11T03:08:56;96910.44;;;17.41;59.50
69879;BME280;57161;43.136;24.706;2022-12-11T03:11:21;96915.16;;;17.54;59.19
69879;BME280;57161;43.136;24.706;2022-12-11T03:13:47;96924.66;;;17.63;58.34
69879;BME280;57161;43.136;24.706;2022-12-11T03:16:23;96946.31;;;17.74;58.70
69879;BME280;57161;43.136;24.706;2022-12-11T03:19:01;96962.97;;;17.86;58.23
69879;BME280;57161;43.136;24.706;2022-12-11T03:21:33;96970.25;;;17.91;57.89
69879;BME280;57161;43.136;24.706;2022-12-11T03:24:08;96969.41;;;17.88;58.35
69879;BME280;57161;43.136;24.706;2022-12-11T03:26:39;96964.19;;;17.81;58.57
69879;BME280;57161;43.136;24.706;2022-12-11T03:31:42;96984.84;;;17.85;58.71
69879;BME280;57161;43.136;24.706;2022-12-11T03:34:19;96976.44;;;17.87;58.96
69879;BME280;57161;43.136;24.706;2022-12-11T03:36:49;96972.66;;;17.81;58.97
69879;BME280;57161;43.136;24.706;2022-12-11T03:39:21;96993.56;;;17.91;59.12
69879;BME280;57161;43.136;24.706;2022-12-11T03:41:50;96977.00;;;17.84;59.58
69879;BME280;57161;43.136;24.706;2022-12-11T03:44:17;96990.41;;;17.83;59.83
69879;BME280;57161;43.136;24.706;2022-12-11T03:46:45;96957.25;;;17.66;60.04
69879;BME280;57161;43.136;24.706;2022-12-11T03:49:18;96973.63;;;17.69;60.49
69879;BME280;57161;43.136;24.706;2022-12-11T03:51:45;96967.00;;;17.63;60.33
69879;BME280;57161;43.136;24.706;2022-12-11T03:54:11;96971.94;;;17.62;60.24
69879;BME280;57161;43.136;24.706;2022-12-11T03:56:38;96990.09;;;17.75;60.19
69879;BME280;57161;43.136;24.706;2022-12-11T03:59:05;96977.00;;;17.66;60.44
69879;BME280;57161;43.136;24.706;2022-12-11T04:01:31;96986.94;;;17.67;60.44
69879;BME280;57161;43.136;24.706;2022-12-11T04:03:56;96993.59;;;17.74;60.18
69879;BME280;57161;43.136;24.706;2022-12-11T04:06:22;96991.22;;;17.68;60.71
69879;BME280;57161;43.136;24.706;2022-12-11T04:08:47;96991.78;;;17.64;60.67
69879;BME280;57161;43.136;24.706;2022-12-11T04:11:12;96989.69;;;17.65;60.90
69879;BME280;57161;43.136;24.706;2022-12-11T04:13:56;97002.06;;;17.74;60.34
69879;BME280;57161;43.136;24.706;2022-12-11T04:16:40;97009.44;;;17.65;60.60
69879;BME280;57161;43.136;24.706;2022-12-11T04:19:07;97014.22;;;17.60;60.76
69879;BME280;57161;43.136;24.706;2022-12-11T04:21:52;97024.84;;;17.62;61.11
69879;BME280;57161;43.136;24.706;2022-12-11T04:24:36;97033.91;;;17.58;61.40
69879;BME280;57161;43.136;24.706;2022-12-11T04:27:02;97013.22;;;17.54;60.90
69879;BME280;57161;43.136;24.706;2022-12-11T04:29:27;97008.38;;;17.38;60.87
69879;BME280;57161;43.136;24.706;2022-12-11T04:31:53;97029.22;;;17.47;61.41
69879;BME280;57161;43.136;24.706;2022-12-11T04:34:18;97021.31;;;17.44;61.65
69879;BME280;57161;43.136;24.706;2022-12-11T04:36:44;97026.94;;;17.44;61.25
69879;BME280;57161;43.136;24.706;2022-12-11T04:39:10;97035.41;;;17.44;61.56
69879;BME280;57161;43.136;24.706;2022-12-11T04:41:35;97035.06;;;17.35;62.10
69879;BME280;57161;43.136;24.706;2022-12-11T04:44:03;97026.09;;;17.23;62.68
69879;BME280;57161;43.136;24.706;2022-12-11T04:46:29;97014.41;;;17.13;62.80
69879;BME280;57161;43.136;24.706;2022-12-11T04:48:54;97032.97;;;17.18;63.16
69879;BME280;57161;43.136;24.706;2022-12-11T04:51:20;97029.09;;;17.09;63.67
69879;BME280;57161;43.136;24.706;2022-12-11T04:53:46;97011.94;;;16.88;63.95
69879;BME280;57161;43.136;24.706;2022-12-11T04:56:13;97033.22;;;16.91;64.05
69879;BME280;57161;43.136;24.706;2022-12-11T04:58:41;97030.13;;;16.85;64.16
69879;BME280;57161;43.136;24.706;2022-12-11T05:01:18;97045.53;;;16.82;64.48
69879;BME280;57161;43.136;24.706;2022-12-11T05:03:45;97050.44;;;16.65;64.54
69879;BME280;57161;43.136;24.706;2022-12-11T05:06:11;97064.25;;;16.75;64.58
69879;BME280;57161;43.136;24.706;2022-12-11T05:08:39;97070.34;;;16.69;64.43
69879;BME280;57161;43.136;24.706;2022-12-11T05:11:08;97070.00;;;16.61;65.32
69879;BME280;57161;43.136;24.706;2022-12-11T05:13:34;97064.53;;;16.49;66.04
69879;BME280;57161;43.136;24.706;2022-12-11T05:16:02;97056.25;;;16.38;66.48
69879;BME280;57161;43.136;24.706;2022-12-11T05:18:28;97054.78;;;16.21;67.08
69879;BME280;57161;43.136;24.706;2022-12-11T05:20:59;97052.44;;;16.15;67.70
69879;BME280;57161;43.136;24.706;2022-12-11T05:23:26;97063.22;;;16.05;68.22
69879;BME280;57161;43.136;24.706;2022-12-11T05:25:57;97059.56;;;15.87;68.74
69879;BME280;57161;43.136;24.706;2022-12-11T05:28:26;97079.81;;;15.83;68.65
69879;BME280;57161;43.136;24.706;2022-12-11T05:30:56;97079.63;;;15.79;68.67
69879;BME280;57161;43.136;24.706;2022-12-11T05:33:22;97086.59;;;15.78;68.86
69879;BME280;57161;43.136;24.706;2022-12-11T05:35:48;97094.66;;;15.70;69.27
69879;BME280;57161;43.136;24.706;2022-12-11T05:38:14;97108.25;;;15.46;70.03
69879;BME280;57161;43.136;24.706;2022-12-11T05:40:40;97131.34;;;15.45;70.56
69879;BME280;57161;43.136;24.706;2022-12-11T05:43:05;97139.78;;;15.45;70.89
69879;BME280;57161;43.136;24.706;2022-12-11T05:45:31;97132.84;;;15.32;70.96
69879;BME280;57161;43.136;24.706;2022-12-11T05:47:56;97142.44;;;15.27;71.25
69879;BME280;57161;43.136;24.706;2022-12-11T05:50:22;97136.31;;;15.17;71.69
69879;BME280;57161;43.136;24.706;2022-12-11T05:52:47;97147.13;;;15.09;71.68
69879;BME280;57161;43.136;24.706;2022-12-11T05:55:13;97142.66;;;15.04;71.51
69879;BME280;57161;43.136;24.706;2022-12-11T05:57:38;97138.69;;;15.09;71.46
69879;BME280;57161;43.136;24.706;2022-12-11T06:00:05;97146.19;;;15.04;71.21
69879;BME280;57161;43.136;24.706;2022-12-11T06:02:30;97142.94;;;14.96;71.08
69879;BME280;57161;43.136;24.706;2022-12-11T06:04:58;97151.19;;;14.92;71.21
69879;BME280;57161;43.136;24.706;2022-12-11T06:07:24;97128.38;;;14.72;71.80
69879;BME280;57161;43.136;24.706;2022-12-11T06:09:49;97135.44;;;14.73;72.14
69879;BME280;57161;43.136;24.706;2022-12-11T06:12:15;97139.81;;;14.76;72.58
69879;BME280;57161;43.136;24.706;2022-12-11T06:14:40;97156.56;;;14.74;72.77
69879;BME280;57161;43.136;24.706;2022-12-11T06:17:06;97163.75;;;14.77;72.53
69879;BME280;57161;43.136;24.706;2022-12-11T06:19:31;97158.13;;;14.77;72.47
69879;BME280;57161;43.136;24.706;2022-12-11T06:21:57;97146.56;;;14.71;72.69
69879;BME280;57161;43.136;24.706;2022-12-11T06:24:22;97162.28;;;14.76;72.80
69879;BME280;57161;43.136;24.706;2022-12-11T06:26:48;97176.78;;;14.84;72.72
69879;BME280;57161;43.136;24.706;2022-12-11T06:29:13;97175.09;;;14.79;72.66
69879;BME280;57161;43.136;24.706;2022-12-11T06:31:39;97183.25;;;14.87;72.91
69879;BME280;57161;43.136;24.706;2022-12-11T06:34:04;97177.91;;;14.79;73.08
69879;BME280;57161;43.136;24.706;2022-12-11T06:36:30;97180.31;;;14.71;73.29
69879;BME280;57161;43.136;24.706;2022-12-11T06:38:55;97146.72;;;14.48;73.33
69879;BME280;57161;43.136;24.706;2022-12-11T06:41:21;97182.38;;;14.70;72.69
69879;BME280;57161;43.136;24.706;2022-12-11T06:43:46;97186.13;;;14.75;72.50
69879;BME280;57161;43.136;24.706;2022-12-11T06:46:15;97178.75;;;14.68;72.80
69879;BME280;57161;43.136;24.706;2022-12-11T06:48:41;97188.22;;;14.75;73.29
69879;BME280;57161;43.136;24.706;2022-12-11T06:51:10;97181.22;;;14.62;73.49
69879;BME280;57161;43.136;24.706;2022-12-11T06:53:37;97202.91;;;14.73;73.54
69879;BME280;57161;43.136;24.706;2022-12-11T06:56:04;97214.25;;;14.75;73.51
69879;BME280;57161;43.136;24.706;2022-12-11T06:58:30;97206.94;;;14.70;73.46
69879;BME280;57161;43.136;24.706;2022-12-11T07:00:56;97202.34;;;14.63;73.51
69879;BME280;57161;43.136;24.706;2022-12-11T07:03:21;97202.91;;;14.73;72.93
69879;BME280;57161;43.136;24.706;2022-12-11T07:05:47;97216.53;;;14.79;72.91
69879;BME280;57161;43.136;24.706;2022-12-11T07:08:12;97212.50;;;14.82;72.85
69879;BME280;57161;43.136;24.706;2022-12-11T07:10:38;97209.44;;;14.78;72.86
69879;BME280;57161;43.136;24.706;2022-12-11T07:13:04;97208.00;;;14.77;72.51
69879;BME280;57161;43.136;24.706;2022-12-11T07:15:29;97222.09;;;14.90;72.10
69879;BME280;57161;43.136;24.706;2022-12-11T07:17:55;97219.59;;;14.96;72.23
69879;BME280;57161;43.136;24.706;2022-12-11T07:20:20;97213.13;;;14.94;72.58
69879;BME280;57161;43.136;24.706;2022-12-11T07:22:46;97220.94;;;14.95;72.65
69879;BME280;57161;43.136;24.706;2022-12-11T07:25:11;97208.56;;;14.87;72.75
69879;BME280;57161;43.136;24.706;2022-12-11T07:27:37;97231.19;;;15.02;72.54
69879;BME280;57161;43.136;24.706;2022-12-11T07:30:03;97224.94;;;15.18;72.30
69879;BME280;57161;43.136;24.706;2022-12-11T07:32:29;97218.47;;;15.29;71.47
69879;BME280;57161;43.136;24.706;2022-12-11T07:34:54;97212.84;;;15.29;71.96
69879;BME280;57161;43.136;24.706;2022-12-11T07:37:19;97203.38;;;15.36;71.40
69879;BME280;57161;43.136;24.706;2022-12-11T07:39:45;97196.59;;;15.55;70.52
69879;BME280;57161;43.136;24.706;2022-12-11T07:42:11;97198.50;;;15.64;70.27
69879;BME280;57161;43.136;24.706;2022-12-11T07:44:36;97198.25;;;15.74;70.59
69879;BME280;57161;43.136;24.706;2022-12-11T07:47:01;97196.25;;;15.90;70.11
69879;BME280;57161;43.136;24.706;2022-12-11T07:49:27;97214.28;;;15.99;69.84
69879;BME280;57161;43.136;24.706;2022-12-11T07:51:52;97217.94;;;16.01;69.31
69879;BME280;57161;43.136;24.706;2022-12-11T07:54:18;97224.56;;;16.08;69.30
69879;BME280;57161;43.136;24.706;2022-12-11T07:56:47;97210.06;;;16.13;68.65
69879;BME280;57161;43.136;24.706;2022-12-11T07:59:13;97224.06;;;16.11;68.95
69879;BME280;57161;43.136;24.706;2022-12-11T08:01:39;97228.47;;;16.01;69.27
69879;BME280;57161;43.136;24.706;2022-12-11T08:04:06;97248.06;;;16.12;69.58
69879;BME280;57161;43.136;24.706;2022-12-11T08:06:34;97260.78;;;16.13;69.55
69879;BME280;57161;43.136;24.706;2022-12-11T08:09:03;97250.25;;;16.14;69.69
69879;BME280;57161;43.136;24.706;2022-12-11T08:11:29;97250.75;;;16.10;69.85
69879;BME280;57161;43.136;24.706;2022-12-11T08:13:55;97240.03;;;16.07;69.86
69879;BME280;57161;43.136;24.706;2022-12-11T08:16:21;97247.06;;;16.21;68.61
69879;BME280;57161;43.136;24.706;2022-12-11T08:18:47;97235.00;;;16.19;68.23
69879;BME280;57161;43.136;24.706;2022-12-11T08:21:14;97247.97;;;16.40;67.30
69879;BME280;57161;43.136;24.706;2022-12-11T08:23:40;97263.00;;;16.44;67.13
69879;BME280;57161;43.136;24.706;2022-12-11T08:26:07;97278.03;;;16.35;68.91
69879;BME280;57161;43.136;24.706;2022-12-11T08:28:34;97281.34;;;15.88;66.39
69879;BME280;57161;43.136;24.706;2022-12-11T08:31:01;97280.75;;;15.63;67.14
69879;BME280;57161;43.136;24.706;2022-12-11T08:33:27;97285.28;;;15.42;67.13
69879;BME280;57161;43.136;24.706;2022-12-11T08:35:53;97272.56;;;15.27;67.79
69879;BME280;57161;43.136;24.706;2022-12-11T08:38:18;97290.28;;;15.44;67.80
69879;BME280;57161;43.136;24.706;2022-12-11T08:40:44;97295.81;;;15.55;67.14
69879;BME280;57161;43.136;24.706;2022-12-11T08:43:09;97275.63;;;15.59;66.50
69879;BME280;57161;43.136;24.706;2022-12-11T08:45:35;97285.22;;;15.81;65.79
69879;BME280;57161;43.136;24.706;2022-12-11T08:48:00;97296.78;;;15.87;65.91
69879;BME280;57161;43.136;24.706;2022-12-11T08:50:26;97265.28;;;15.50;65.63
69879;BME280;57161;43.136;24.706;2022-12-11T08:52:51;97284.66;;;15.57;66.10
69879;BME280;57161;43.136;24.706;2022-12-11T08:55:18;97293.22;;;15.46;65.83
69879;BME280;57161;43.136;24.706;2022-12-11T08:57:43;97284.94;;;15.22;67.24
69879;BME280;57161;43.136;24.706;2022-12-11T09:00:11;97280.81;;;14.84;68.56
69879;BME280;57161;43.136;24.706;2022-12-11T09:02:36;97287.47;;;14.91;68.53
69879;BME280;57161;43.136;24.706;2022-12-11T09:05:02;97306.38;;;15.02;68.41
69879;BME280;57161;43.136;24.706;2022-12-11T09:07:35;97328.47;;;15.08;68.55
69879;BME280;57161;43.136;24.706;2022-12-11T09:10:03;97327.81;;;14.70;69.18
69879;BME280;57161;43.136;24.706;2022-12-11T09:12:29;97340.28;;;14.18;70.39
69879;BME280;57161;43.136;24.706;2022-12-11T09:14:54;97330.31;;;14.03;71.66
69879;BME280;57161;43.136;24.706;2022-12-11T09:17:20;97338.84;;;14.05;71.18
69879;BME280;57161;43.136;24.706;2022-12-11T09:19:45;97322.28;;;13.74;72.37
69879;BME280;57161;43.136;24.706;2022-12-11T09:22:11;97359.88;;;13.69;72.36
69879;BME280;57161;43.136;24.706;2022-12-11T09:24:37;97382.19;;;13.56;73.07
69879;BME280;57161;43.136;24.706;2022-12-11T09:27:04;97389.34;;;13.35;73.92
69879;BME280;57161;43.136;24.706;2022-12-11T09:29:30;97373.72;;;13.32;73.67
69879;BME280;57161;43.136;24.706;2022-12-11T09:31:56;97375.91;;;13.22;73.68
69879;BME280;57161;43.136;24.706;2022-12-11T09:34:21;97389.25;;;13.12;74.29
69879;BME280;57161;43.136;24.706;2022-12-11T09:36:47;97390.53;;;12.87;74.66
69879;BME280;57161;43.136;24.706;2022-12-11T09:39:14;97388.84;;;12.61;74.80
69879;BME280;57161;43.136;24.706;2022-12-11T09:41:51;97395.50;;;12.56;75.44
69879;BME280;57161;43.136;24.706;2022-12-11T09:52:35;97428.97;;;12.75;73.03
69879;BME280;57161;43.136;24.706;2022-12-11T09:55:09;97408.75;;;12.34;74.35
69879;BME280;57161;43.136;24.706;2022-12-11T10:00:23;97430.97;;;11.89;76.30
69879;BME280;57161;43.136;24.706;2022-12-11T10:09:25;97445.75;;;12.11;74.38
69879;BME280;57161;43.136;24.706;2022-12-11T10:16:58;97450.16;;;12.14;72.28
69879;BME280;57161;43.136;24.706;2022-12-11T10:19:28;97421.19;;;12.00;71.77
69879;BME280;57161;43.136;24.706;2022-12-11T10:21:55;97453.69;;;12.15;72.62
69879;BME280;57161;43.136;24.706;2022-12-11T10:26:54;97433.25;;;12.02;72.67
69879;BME280;57161;43.136;24.706;2022-12-11T10:29:20;97432.13;;;11.96;73.23
69879;BME280;57161;43.136;24.706;2022-12-11T10:31:53;97429.53;;;11.69;74.30
69879;BME280;57161;43.136;24.706;2022-12-11T10:34:32;97451.16;;;11.78;74.39
69879;BME280;57161;43.136;24.706;2022-12-11T10:36:59;97439.47;;;11.51;74.12
69879;BME280;57161;43.136;24.706;2022-12-11T10:39:25;97443.22;;;11.24;75.09
69879;BME280;57161;43.136;24.706;2022-12-11T10:41:52;97420.13;;;11.24;76.28
69879;BME280;57161;43.136;24.706;2022-12-11T10:44:22;97440.84;;;11.30;75.31
69879;BME280;57161;43.136;24.706;2022-12-11T10:49:29;97425.66;;;11.43;74.35
69879;BME280;57161;43.136;24.706;2022-12-11T10:51:56;97408.06;;;11.11;74.12
69879;BME280;57161;43.136;24.706;2022-12-11T10:54:37;97437.19;;;11.18;75.22
69879;BME280;57161;43.136;24.706;2022-12-11T10:57:06;97446.28;;;11.28;74.88
69879;BME280;57161;43.136;24.706;2022-12-11T11:02:31;97438.31;;;11.34;74.14
69879;BME280;57161;43.136;24.706;2022-12-11T11:04:59;97435.25;;;11.30;72.27
69879;BME280;57161;43.136;24.706;2022-12-11T11:07:28;97443.50;;;11.19;73.08
69879;BME280;57161;43.136;24.706;2022-12-11T11:10:23;97442.03;;;11.27;74.71
69879;BME280;57161;43.136;24.706;2022-12-11T11:12:54;97453.34;;;11.39;74.33
69879;BME280;57161;43.136;24.706;2022-12-11T11:15:26;97457.44;;;11.38;73.34
69879;BME280;57161;43.136;24.706;2022-12-11T11:17:54;97460.13;;;11.26;73.08
69879;BME280;57161;43.136;24.706;2022-12-11T11:20:23;97451.47;;;11.12;72.11
69879;BME280;57161;43.136;24.706;2022-12-11T11:22:52;97450.00;;;11.02;71.40
69879;BME280;57161;43.136;24.706;2022-12-11T11:25:21;97449.56;;;10.96;72.35
69879;BME280;57161;43.136;24.706;2022-12-11T11:27:59;97443.84;;;10.74;70.97
69879;BME280;57161;43.136;24.706;2022-12-11T11:33:21;97446.31;;;10.99;72.33
69879;BME280;57161;43.136;24.706;2022-12-11T11:36:02;97451.31;;;11.01;71.35
69879;BME280;57161;43.136;24.706;2022-12-11T11:38:36;97440.59;;;10.59;73.24
69879;BME280;57161;43.136;24.706;2022-12-11T11:41:17;97445.44;;;10.58;75.45
69879;BME280;57161;43.136;24.706;2022-12-11T11:43:50;97446.03;;;10.86;75.92
69879;BME280;57161;43.136;24.706;2022-12-11T11:46:28;97433.09;;;10.71;73.18
69879;BME280;57161;43.136;24.706;2022-12-11T11:49:06;97448.69;;;10.74;74.21
69879;BME280;57161;43.136;24.706;2022-12-11T11:56:45;97476.03;;;10.95;72.53
69879;BME280;57161;43.136;24.706;2022-12-11T11:59:19;97470.72;;;10.99;72.24
69879;BME280;57161;43.136;24.706;2022-12-11T12:01:46;97455.16;;;10.96;72.74
69879;BME280;57161;43.136;24.706;2022-12-11T12:04:12;97471.47;;;11.09;72.49
69879;BME280;57161;43.136;24.706;2022-12-11T12:07:00;97479.41;;;11.12;70.94
69879;BME280;57161;43.136;24.706;2022-12-11T12:09:48;97478.38;;;11.08;70.37
69879;BME280;57161;43.136;24.706;2022-12-11T12:12:48;97476.59;;;11.03;70.54
69879;BME280;57161;43.136;24.706;2022-12-11T12:17:55;97475.41;;;10.48;70.08
69879;BME280;57161;43.136;24.706;2022-12-11T12:23:08;97500.34;;;10.27;71.53
69879;BME280;57161;43.136;24.706;2022-12-11T12:25:53;97499.31;;;9.95;71.55
69879;BME280;57161;43.136;24.706;2022-12-11T12:28:35;97508.41;;;9.69;73.09
69879;BME280;57161;43.136;24.706;2022-12-11T12:49:51;97514.16;;;10.34;73.78
69879;BME280;57161;43.136;24.706;2022-12-11T12:52:33;97516.91;;;10.25;74.35
69879;BME280;57161;43.136;24.706;2022-12-11T12:57:40;97506.00;;;10.19;74.26
69879;BME280;57161;43.136;24.706;2022-12-11T13:00:07;97502.53;;;10.01;74.25
69879;BME280;57161;43.136;24.706;2022-12-11T13:02:37;97503.88;;;9.73;75.14
69879;BME280;57161;43.136;24.706;2022-12-11T13:05:18;97494.75;;;9.63;76.45
69879;BME280;57161;43.136;24.706;2022-12-11T13:07:51;97499.53;;;9.80;75.91
69879;BME280;57161;43.136;24.706;2022-12-11T13:12:53;97493.88;;;9.70;76.75
69879;BME280;57161;43.136;24.706;2022-12-11T13:18:29;97497.91;;;9.77;76.61
69879;BME280;57161;43.136;24.706;2022-12-11T13:20:51;97523.91;;;9.89;77.15
69879;BME280;57161;43.136;24.706;2022-12-11T13:23:26;97546.72;;;9.95;78.54
69879;BME280;57161;43.136;24.706;2022-12-11T13:25:54;97528.19;;;9.90;78.13
69879;BME280;57161;43.136;24.706;2022-12-11T13:28:27;97508.44;;;9.51;80.33
69879;BME280;57161;43.136;24.706;2022-12-11T13:33:31;97533.50;;;9.24;82.68
69879;BME280;57161;43.136;24.706;2022-12-11T13:39:05;97541.09;;;9.41;82.67
69879;BME280;57161;43.136;24.706;2022-12-11T13:41:36;97562.91;;;9.52;83.35
69879;BME280;57161;43.136;24.706;2022-12-11T13:44:04;97559.38;;;9.52;82.32
69879;BME280;57161;43.136;24.706;2022-12-11T13:46:34;97557.75;;;9.49;81.79
69879;BME280;57161;43.136;24.706;2022-12-11T13:49:03;97559.28;;;9.42;80.22
69879;BME280;57161;43.136;24.706;2022-12-11T13:51:31;97544.72;;;9.34;78.58
69879;BME280;57161;43.136;24.706;2022-12-11T13:54:10;97542.75;;;9.10;78.11
69879;BME280;57161;43.136;24.706;2022-12-11T13:56:37;97540.19;;;8.69;80.80
69879;BME280;57161;43.136;24.706;2022-12-11T13:59:02;97549.75;;;8.59;82.11
69879;BME280;57161;43.136;24.706;2022-12-11T14:01:31;97561.44;;;8.82;82.63
69879;BME280;57161;43.136;24.706;2022-12-11T14:04:00;97550.72;;;8.79;80.48
69879;BME280;57161;43.136;24.706;2022-12-11T14:06:27;97570.88;;;8.62;82.94
69879;BME280;57161;43.136;24.706;2022-12-11T14:08:56;97596.63;;;8.70;84.07
69879;BME280;57161;43.136;24.706;2022-12-11T14:11:36;97576.00;;;8.73;83.43
69879;BME280;57161;43.136;24.706;2022-12-11T14:14:25;97557.56;;;8.78;82.36
69879;BME280;57161;43.136;24.706;2022-12-11T14:16:52;97552.69;;;8.61;80.94
69879;BME280;57161;43.136;24.706;2022-12-11T14:19:19;97568.50;;;8.58;81.62
69879;BME280;57161;43.136;24.706;2022-12-11T14:22:15;97575.78;;;8.54;82.12
69879;BME280;57161;43.136;24.706;2022-12-11T14:24:51;97565.22;;;8.52;83.68
69879;BME280;57161;43.136;24.706;2022-12-11T14:27:18;97574.59;;;8.39;81.60